sensor_id;sensor_type;location;lat;lon;timestamp;P1;durP1;ratioP1;P2;durP2;ratioP2
9904;SDS011;4991;43.566;27.820;2023-05-28T00:00:11;0.23;;;0.23;;
9904;SDS011;4991;43.566;27.820;2023-05-28T00:02:39;0.30;;;0.30;;
9904;SDS011;4991;43.566;27.820;2023-05-28T00:05:05;0.20;;;0.20;;
9904;SDS011;4991;43.566;27.820;2023-05-28T00:07:31;0.20;;;0.20;;
9904;SDS011;4991;43.566;27.820;2023-05-28T00:09:59;0.30;;;0.30;;
9904;SDS011;4991;43.566;27.820;2023-05-28T00:12:25;0.20;;;0.20;;
9904;SDS011;4991;43.566;27.820;2023-05-28T00:14:51;0.20;;;0.20;;
9904;SDS011;4991;43.566;27.820;2023-05-28T00:17:17;0.20;;;0.20;;
9904;SDS011;4991;43.566;27.820;2023-05-28T00:19:43;0.30;;;0.30;;
9904;SDS011;4991;43.566;27.820;2023-05-28T00:22:09;0.20;;;0.20;;
9904;SDS011;4991;43.566;27.820;2023-05-28T00:24:36;0.20;;;0.20;;
9904;SDS011;4991;43.566;27.820;2023-05-28T00:27:02;0.20;;;0.20;;
9904;SDS011;4991;43.566;27.820;2023-05-28T00:29:31;0.30;;;0.30;;
9904;SDS011;4991;43.566;27.820;2023-05-28T00:31:56;0.20;;;0.20;;
9904;SDS011;4991;43.566;27.820;2023-05-28T00:34:22;0.40;;;0.40;;
9904;SDS011;4991;43.566;27.820;2023-05-28T00:36:48;0.20;;;0.20;;
9904;SDS011;4991;43.566;27.820;2023-05-28T00:39:15;0.20;;;0.20;;
9904;SDS011;4991;43.566;27.820;2023-05-28T00:41:41;0.30;;;0.30;;
9904;SDS011;4991;43.566;27.820;2023-05-28T00:44:07;0.20;;;0.20;;
9904;SDS011;4991;43.566;27.820;2023-05-28T00:46:34;0.30;;;0.30;;
9904;SDS011;4991;43.566;27.820;2023-05-28T00:49:01;0.20;;;0.20;;
9904;SDS011;4991;43.566;27.820;2023-05-28T00:51:27;0.20;;;0.20;;
9904;SDS011;4991;43.566;27.820;2023-05-28T00:53:53;0.30;;;0.30;;
9904;SDS011;4991;43.566;27.820;2023-05-28T00:56:20;0.20;;;0.20;;
9904;SDS011;4991;43.566;27.820;2023-05-28T00:58:48;0.20;;;0.20;;
9904;SDS011;4991;43.566;27.820;2023-05-28T01:01:14;0.30;;;0.30;;
9904;SDS011;4991;43.566;27.820;2023-05-28T01:03:40;0.20;;;0.20;;
9904;SDS011;4991;43.566;27.820;2023-05-28T01:06:10;0.20;;;0.20;;
9904;SDS011;4991;43.566;27.820;2023-05-28T01:08:38;0.30;;;0.30;;
9904;SDS011;4991;43.566;27.820;2023-05-28T01:11:05;0.30;;;0.30;;
9904;SDS011;4991;43.566;27.820;2023-05-28T01:13:33;0.27;;;0.27;;
9904;SDS011;4991;43.566;27.820;2023-05-28T01:16:00;0.27;;;0.27;;
9904;SDS011;4991;43.566;27.820;2023-05-28T01:18:26;0.30;;;0.30;;
9904;SDS011;4991;43.566;27.820;2023-05-28T01:20:53;0.20;;;0.20;;
9904;SDS011;4991;43.566;27.820;2023-05-28T01:23:19;0.20;;;0.20;;
9904;SDS011;4991;43.566;27.820;2023-05-28T01:25:49;0.20;;;0.20;;
9904;SDS011;4991;43.566;27.820;2023-05-28T01:28:16;0.30;;;0.30;;
9904;SDS011;4991;43.566;27.820;2023-05-28T01:30:42;0.20;;;0.20;;
9904;SDS011;4991;43.566;27.820;2023-05-28T01:33:08;0.33;;;0.33;;
9904;SDS011;4991;43.566;27.820;2023-05-28T01:35:36;0.30;;;0.30;;
9904;SDS011;4991;43.566;27.820;2023-05-28T01:38:03;0.20;;;0.20;;
9904;SDS011;4991;43.566;27.820;2023-05-28T01:40:29;0.20;;;0.20;;
9904;SDS011;4991;43.566;27.820;2023-05-28T01:42:58;0.20;;;0.20;;
9904;SDS011;4991;43.566;27.820;2023-05-28T01:45:24;0.30;;;0.30;;
9904;SDS011;4991;43.566;27.820;2023-05-28T01:47:50;0.27;;;0.27;;
9904;SDS011;4991;43.566;27.820;2023-05-28T01:50:17;0.20;;;0.20;;
9904;SDS011;4991;43.566;27.820;2023-05-28T01:52:43;0.30;;;0.30;;
9904;SDS011;4991;43.566;27.820;2023-05-28T01:55:09;0.27;;;0.27;;
9904;SDS011;4991;43.566;27.820;2023-05-28T01:57:37;0.20;;;0.20;;
9904;SDS011;4991;43.566;27.820;2023-05-28T02:00:03;0.20;;;0.20;;
9904;SDS011;4991;43.566;27.820;2023-05-28T02:02:31;0.30;;;0.30;;
9904;SDS011;4991;43.566;27.820;2023-05-28T02:04:57;0.20;;;0.20;;
9904;SDS011;4991;43.566;27.820;2023-05-28T02:07:22;0.20;;;0.20;;
9904;SDS011;4991;43.566;27.820;2023-05-28T02:09:48;0.20;;;0.20;;
9904;SDS011;4991;43.566;27.820;2023-05-28T02:12:14;0.20;;;0.20;;
9904;SDS011;4991;43.566;27.820;2023-05-28T02:14:41;0.20;;;0.20;;
9904;SDS011;4991;43.566;27.820;2023-05-28T02:17:08;0.20;;;0.20;;
9904;SDS011;4991;43.566;27.820;2023-05-28T02:19:34;0.20;;;0.20;;
9904;SDS011;4991;43.566;27.820;2023-05-28T02:22:00;0.20;;;0.20;;
9904;SDS011;4991;43.566;27.820;2023-05-28T02:24:29;0.30;;;0.30;;
9904;SDS011;4991;43.566;27.820;2023-05-28T02:26:54;0.20;;;0.20;;
9904;SDS011;4991;43.566;27.820;2023-05-28T02:29:20;0.20;;;0.20;;
9904;SDS011;4991;43.566;27.820;2023-05-28T02:31:46;0.20;;;0.20;;
9904;SDS011;4991;43.566;27.820;2023-05-28T02:34:11;0.30;;;0.30;;
9904;SDS011;4991;43.566;27.820;2023-05-28T02:36:37;0.20;;;0.20;;
9904;SDS011;4991;43.566;27.820;2023-05-28T02:39:03;0.30;;;0.30;;
9904;SDS011;4991;43.566;27.820;2023-05-28T02:41:29;0.30;;;0.30;;
9904;SDS011;4991;43.566;27.820;2023-05-28T02:43:54;0.30;;;0.30;;
9904;SDS011;4991;43.566;27.820;2023-05-28T02:46:20;0.30;;;0.30;;
9904;SDS011;4991;43.566;27.820;2023-05-28T02:48:45;0.20;;;0.20;;
9904;SDS011;4991;43.566;27.820;2023-05-28T02:51:11;0.20;;;0.20;;
9904;SDS011;4991;43.566;27.820;2023-05-28T02:53:37;0.20;;;0.20;;
9904;SDS011;4991;43.566;27.820;2023-05-28T02:56:03;0.20;;;0.20;;
9904;SDS011;4991;43.566;27.820;2023-05-28T02:58:29;0.20;;;0.20;;
9904;SDS011;4991;43.566;27.820;2023-05-28T03:00:55;0.30;;;0.30;;
9904;SDS011;4991;43.566;27.820;2023-05-28T03:03:21;0.27;;;0.27;;
9904;SDS011;4991;43.566;27.820;2023-05-28T03:05:48;0.30;;;0.30;;
9904;SDS011;4991;43.566;27.820;2023-05-28T03:08:16;0.30;;;0.30;;
9904;SDS011;4991;43.566;27.820;2023-05-28T03:10:42;0.20;;;0.20;;
9904;SDS011;4991;43.566;27.820;2023-05-28T03:13:07;0.30;;;0.30;;
9904;SDS011;4991;43.566;27.820;2023-05-28T03:15:33;0.40;;;0.40;;
9904;SDS011;4991;43.566;27.820;2023-05-28T03:18:00;0.20;;;0.20;;
9904;SDS011;4991;43.566;27.820;2023-05-28T03:20:26;0.30;;;0.30;;
9904;SDS011;4991;43.566;27.820;2023-05-28T03:22:55;0.20;;;0.20;;
9904;SDS011;4991;43.566;27.820;2023-05-28T03:25:21;0.20;;;0.20;;
9904;SDS011;4991;43.566;27.820;2023-05-28T03:27:48;0.20;;;0.20;;
9904;SDS011;4991;43.566;27.820;2023-05-28T03:30:14;0.20;;;0.20;;
9904;SDS011;4991;43.566;27.820;2023-05-28T03:32:40;0.20;;;0.20;;
9904;SDS011;4991;43.566;27.820;2023-05-28T03:35:06;0.20;;;0.20;;
9904;SDS011;4991;43.566;27.820;2023-05-28T03:37:32;0.27;;;0.27;;
9904;SDS011;4991;43.566;27.820;2023-05-28T03:39:58;0.30;;;0.30;;
9904;SDS011;4991;43.566;27.820;2023-05-28T03:42:23;0.20;;;0.20;;
9904;SDS011;4991;43.566;27.820;2023-05-28T03:44:49;0.20;;;0.20;;
9904;SDS011;4991;43.566;27.820;2023-05-28T03:47:15;0.20;;;0.20;;
9904;SDS011;4991;43.566;27.820;2023-05-28T03:49:40;0.20;;;0.20;;
9904;SDS011;4991;43.566;27.820;2023-05-28T03:52:06;0.20;;;0.20;;
9904;SDS011;4991;43.566;27.820;2023-05-28T03:54:32;0.30;;;0.30;;
9904;SDS011;4991;43.566;27.820;2023-05-28T03:56:58;0.20;;;0.20;;
9904;SDS011;4991;43.566;27.820;2023-05-28T03:59:24;0.20;;;0.20;;
9904;SDS011;4991;43.566;27.820;2023-05-28T04:01:49;0.20;;;0.20;;
9904;SDS011;4991;43.566;27.820;2023-05-28T04:04:15;0.30;;;0.30;;
9904;SDS011;4991;43.566;27.820;2023-05-28T04:06:41;0.20;;;0.20;;
9904;SDS011;4991;43.566;27.820;2023-05-28T04:09:07;0.20;;;0.20;;
9904;SDS011;4991;43.566;27.820;2023-05-28T04:11:33;0.30;;;0.30;;
9904;SDS011;4991;43.566;27.820;2023-05-28T04:14:02;1.03;;;1.03;;
9904;SDS011;4991;43.566;27.820;2023-05-28T04:16:29;0.20;;;0.20;;
9904;SDS011;4991;43.566;27.820;2023-05-28T04:18:54;0.30;;;0.30;;
9904;SDS011;4991;43.566;27.820;2023-05-28T04:21:22;0.30;;;0.30;;
9904;SDS011;4991;43.566;27.820;2023-05-28T04:23:48;0.73;;;0.73;;
9904;SDS011;4991;43.566;27.820;2023-05-28T04:26:14;0.20;;;0.20;;
9904;SDS011;4991;43.566;27.820;2023-05-28T04:28:41;0.20;;;0.20;;
9904;SDS011;4991;43.566;27.820;2023-05-28T04:31:06;0.20;;;0.20;;
9904;SDS011;4991;43.566;27.820;2023-05-28T04:33:32;0.20;;;0.20;;
9904;SDS011;4991;43.566;27.820;2023-05-28T04:35:58;0.20;;;0.20;;
9904;SDS011;4991;43.566;27.820;2023-05-28T04:38:26;0.20;;;0.20;;
9904;SDS011;4991;43.566;27.820;2023-05-28T04:40:57;0.30;;;0.30;;
9904;SDS011;4991;43.566;27.820;2023-05-28T04:43:23;0.30;;;0.30;;
9904;SDS011;4991;43.566;27.820;2023-05-28T04:45:49;0.20;;;0.20;;
9904;SDS011;4991;43.566;27.820;2023-05-28T04:48:14;0.20;;;0.20;;
9904;SDS011;4991;43.566;27.820;2023-05-28T04:50:40;0.20;;;0.20;;
9904;SDS011;4991;43.566;27.820;2023-05-28T04:53:06;0.20;;;0.20;;
9904;SDS011;4991;43.566;27.820;2023-05-28T04:55:32;0.20;;;0.20;;
9904;SDS011;4991;43.566;27.820;2023-05-28T04:57:57;0.20;;;0.20;;
9904;SDS011;4991;43.566;27.820;2023-05-28T05:00:23;0.30;;;0.30;;
9904;SDS011;4991;43.566;27.820;2023-05-28T05:02:51;0.30;;;0.30;;
9904;SDS011;4991;43.566;27.820;2023-05-28T05:05:18;0.20;;;0.20;;
9904;SDS011;4991;43.566;27.820;2023-05-28T05:07:45;0.20;;;0.20;;
9904;SDS011;4991;43.566;27.820;2023-05-28T05:10:11;0.30;;;0.30;;
9904;SDS011;4991;43.566;27.820;2023-05-28T05:12:37;0.20;;;0.20;;
9904;SDS011;4991;43.566;27.820;2023-05-28T05:15:03;0.40;;;0.40;;
9904;SDS011;4991;43.566;27.820;2023-05-28T05:17:31;0.30;;;0.30;;
9904;SDS011;4991;43.566;27.820;2023-05-28T05:19:58;0.37;;;0.37;;
9904;SDS011;4991;43.566;27.820;2023-05-28T05:22:26;0.20;;;0.20;;
9904;SDS011;4991;43.566;27.820;2023-05-28T05:24:52;0.20;;;0.20;;
9904;SDS011;4991;43.566;27.820;2023-05-28T05:27:18;0.30;;;0.30;;
9904;SDS011;4991;43.566;27.820;2023-05-28T05:29:43;0.27;;;0.27;;
9904;SDS011;4991;43.566;27.820;2023-05-28T05:32:09;0.20;;;0.20;;
9904;SDS011;4991;43.566;27.820;2023-05-28T05:34:35;0.20;;;0.20;;
9904;SDS011;4991;43.566;27.820;2023-05-28T05:37:01;0.20;;;0.20;;
9904;SDS011;4991;43.566;27.820;2023-05-28T05:39:27;0.20;;;0.20;;
9904;SDS011;4991;43.566;27.820;2023-05-28T05:41:53;23.40;;;12.23;;
9904;SDS011;4991;43.566;27.820;2023-05-28T05:44:19;17.27;;;12.87;;
9904;SDS011;4991;43.566;27.820;2023-05-28T05:46:45;20.83;;;12.27;;
9904;SDS011;4991;43.566;27.820;2023-05-28T05:49:11;17.33;;;12.20;;
9904;SDS011;4991;43.566;27.820;2023-05-28T05:51:36;16.93;;;11.57;;
9904;SDS011;4991;43.566;27.820;2023-05-28T05:54:02;16.63;;;11.17;;
9904;SDS011;4991;43.566;27.820;2023-05-28T05:56:28;14.93;;;11.10;;
9904;SDS011;4991;43.566;27.820;2023-05-28T05:58:54;18.27;;;11.90;;
9904;SDS011;4991;43.566;27.820;2023-05-28T06:01:20;15.77;;;11.47;;
9904;SDS011;4991;43.566;27.820;2023-05-28T06:03:46;15.60;;;13.00;;
9904;SDS011;4991;43.566;27.820;2023-05-28T06:06:12;15.37;;;12.47;;
9904;SDS011;4991;43.566;27.820;2023-05-28T06:08:38;19.63;;;12.77;;
9904;SDS011;4991;43.566;27.820;2023-05-28T06:11:04;20.60;;;14.30;;
9904;SDS011;4991;43.566;27.820;2023-05-28T06:13:30;15.90;;;12.83;;
9904;SDS011;4991;43.566;27.820;2023-05-28T06:15:56;17.23;;;13.07;;
9904;SDS011;4991;43.566;27.820;2023-05-28T06:18:22;17.90;;;11.63;;
9904;SDS011;4991;43.566;27.820;2023-05-28T06:20:49;14.57;;;12.13;;
9904;SDS011;4991;43.566;27.820;2023-05-28T06:23:15;18.87;;;11.70;;
9904;SDS011;4991;43.566;27.820;2023-05-28T06:25:41;17.10;;;11.83;;
9904;SDS011;4991;43.566;27.820;2023-05-28T06:28:09;14.50;;;11.17;;
9904;SDS011;4991;43.566;27.820;2023-05-28T06:30:38;20.33;;;12.13;;
9904;SDS011;4991;43.566;27.820;2023-05-28T06:33:11;25.63;;;12.80;;
9904;SDS011;4991;43.566;27.820;2023-05-28T06:35:36;18.37;;;12.40;;
9904;SDS011;4991;43.566;27.820;2023-05-28T06:38:02;21.70;;;12.43;;
9904;SDS011;4991;43.566;27.820;2023-05-28T06:40:34;19.03;;;12.97;;
9904;SDS011;4991;43.566;27.820;2023-05-28T06:42:59;16.37;;;11.50;;
9904;SDS011;4991;43.566;27.820;2023-05-28T06:45:26;18.20;;;11.97;;
9904;SDS011;4991;43.566;27.820;2023-05-28T06:47:52;16.97;;;10.57;;
9904;SDS011;4991;43.566;27.820;2023-05-28T06:50:18;18.63;;;12.03;;
9904;SDS011;4991;43.566;27.820;2023-05-28T06:52:44;25.43;;;12.03;;
9904;SDS011;4991;43.566;27.820;2023-05-28T06:55:09;20.23;;;12.13;;
9904;SDS011;4991;43.566;27.820;2023-05-28T06:57:35;19.90;;;11.80;;
9904;SDS011;4991;43.566;27.820;2023-05-28T07:00:04;21.63;;;12.83;;
9904;SDS011;4991;43.566;27.820;2023-05-28T07:02:35;19.07;;;12.27;;
9904;SDS011;4991;43.566;27.820;2023-05-28T07:05:01;19.53;;;12.40;;
9904;SDS011;4991;43.566;27.820;2023-05-28T07:07:30;15.93;;;12.33;;
9904;SDS011;4991;43.566;27.820;2023-05-28T07:09:56;20.00;;;12.63;;
9904;SDS011;4991;43.566;27.820;2023-05-28T07:12:22;18.23;;;12.43;;
9904;SDS011;4991;43.566;27.820;2023-05-28T07:14:47;21.50;;;13.07;;
9904;SDS011;4991;43.566;27.820;2023-05-28T07:17:13;15.90;;;13.30;;
9904;SDS011;4991;43.566;27.820;2023-05-28T07:19:39;17.70;;;13.23;;
9904;SDS011;4991;43.566;27.820;2023-05-28T07:22:05;17.83;;;13.77;;
9904;SDS011;4991;43.566;27.820;2023-05-28T07:24:30;24.70;;;13.60;;
9904;SDS011;4991;43.566;27.820;2023-05-28T07:26:56;17.30;;;12.03;;
9904;SDS011;4991;43.566;27.820;2023-05-28T07:29:22;19.90;;;13.80;;
9904;SDS011;4991;43.566;27.820;2023-05-28T07:31:47;29.73;;;13.53;;
9904;SDS011;4991;43.566;27.820;2023-05-28T07:34:13;21.63;;;13.90;;
9904;SDS011;4991;43.566;27.820;2023-05-28T07:36:38;21.00;;;13.90;;
9904;SDS011;4991;43.566;27.820;2023-05-28T07:39:04;15.20;;;11.63;;
9904;SDS011;4991;43.566;27.820;2023-05-28T07:41:30;17.70;;;11.77;;
9904;SDS011;4991;43.566;27.820;2023-05-28T07:43:56;19.73;;;12.57;;
9904;SDS011;4991;43.566;27.820;2023-05-28T07:46:21;18.27;;;11.97;;
9904;SDS011;4991;43.566;27.820;2023-05-28T07:48:48;19.63;;;12.67;;
9904;SDS011;4991;43.566;27.820;2023-05-28T07:51:14;20.27;;;11.83;;
9904;SDS011;4991;43.566;27.820;2023-05-28T07:53:39;17.23;;;12.30;;
9904;SDS011;4991;43.566;27.820;2023-05-28T07:56:05;23.67;;;12.83;;
9904;SDS011;4991;43.566;27.820;2023-05-28T07:58:31;21.20;;;12.90;;
9904;SDS011;4991;43.566;27.820;2023-05-28T08:00:57;18.50;;;12.23;;
9904;SDS011;4991;43.566;27.820;2023-05-28T08:03:22;16.00;;;11.67;;
9904;SDS011;4991;43.566;27.820;2023-05-28T08:05:49;17.63;;;11.47;;
9904;SDS011;4991;43.566;27.820;2023-05-28T08:08:15;15.67;;;11.93;;
9904;SDS011;4991;43.566;27.820;2023-05-28T08:10:40;15.03;;;11.60;;
9904;SDS011;4991;43.566;27.820;2023-05-28T08:13:06;16.60;;;10.97;;
9904;SDS011;4991;43.566;27.820;2023-05-28T08:15:32;13.63;;;11.17;;
9904;SDS011;4991;43.566;27.820;2023-05-28T08:17:57;13.30;;;9.57;;
9904;SDS011;4991;43.566;27.820;2023-05-28T08:20:23;19.83;;;10.23;;
9904;SDS011;4991;43.566;27.820;2023-05-28T08:22:49;13.95;;;9.43;;
9904;SDS011;4991;43.566;27.820;2023-05-28T08:25:14;13.20;;;9.27;;
9904;SDS011;4991;43.566;27.820;2023-05-28T08:27:41;11.05;;;9.38;;
9904;SDS011;4991;43.566;27.820;2023-05-28T08:30:06;15.30;;;8.65;;
9904;SDS011;4991;43.566;27.820;2023-05-28T08:32:34;13.30;;;8.85;;
9904;SDS011;4991;43.566;27.820;2023-05-28T08:34:59;13.20;;;8.80;;
9904;SDS011;4991;43.566;27.820;2023-05-28T08:37:25;10.98;;;9.00;;
9904;SDS011;4991;43.566;27.820;2023-05-28T08:39:50;11.80;;;9.37;;
9904;SDS011;4991;43.566;27.820;2023-05-28T08:42:16;14.63;;;9.03;;
9904;SDS011;4991;43.566;27.820;2023-05-28T08:44:42;11.07;;;8.07;;
9904;SDS011;4991;43.566;27.820;2023-05-28T08:47:08;13.48;;;8.00;;
9904;SDS011;4991;43.566;27.820;2023-05-28T08:49:52;11.20;;;8.15;;
9904;SDS011;4991;43.566;27.820;2023-05-28T08:52:21;14.15;;;8.20;;
9904;SDS011;4991;43.566;27.820;2023-05-28T08:54:48;10.73;;;7.47;;
9904;SDS011;4991;43.566;27.820;2023-05-28T08:57:14;10.40;;;7.38;;
9904;SDS011;4991;43.566;27.820;2023-05-28T08:59:40;6.93;;;5.60;;
9904;SDS011;4991;43.566;27.820;2023-05-28T09:02:06;8.40;;;6.20;;
9904;SDS011;4991;43.566;27.820;2023-05-28T09:04:34;12.23;;;7.32;;
9904;SDS011;4991;43.566;27.820;2023-05-28T09:07:00;25.50;;;8.32;;
9904;SDS011;4991;43.566;27.820;2023-05-28T09:09:25;11.07;;;7.30;;
9904;SDS011;4991;43.566;27.820;2023-05-28T09:11:54;13.43;;;7.90;;
9904;SDS011;4991;43.566;27.820;2023-05-28T09:14:23;10.63;;;6.60;;
9904;SDS011;4991;43.566;27.820;2023-05-28T09:16:48;11.93;;;6.10;;
9904;SDS011;4991;43.566;27.820;2023-05-28T09:19:14;10.68;;;6.55;;
9904;SDS011;4991;43.566;27.820;2023-05-28T09:21:56;9.00;;;7.50;;
9904;SDS011;4991;43.566;27.820;2023-05-28T09:24:25;9.07;;;7.83;;
9904;SDS011;4991;43.566;27.820;2023-05-28T09:26:53;9.67;;;6.70;;
9904;SDS011;4991;43.566;27.820;2023-05-28T09:29:20;13.93;;;8.40;;
9904;SDS011;4991;43.566;27.820;2023-05-28T09:31:58;9.60;;;7.50;;
9904;SDS011;4991;43.566;27.820;2023-05-28T09:34:26;9.53;;;6.53;;
9904;SDS011;4991;43.566;27.820;2023-05-28T09:36:53;8.30;;;6.70;;
9904;SDS011;4991;43.566;27.820;2023-05-28T09:39:29;9.55;;;6.47;;
9904;SDS011;4991;43.566;27.820;2023-05-28T09:42:02;11.90;;;6.90;;
9904;SDS011;4991;43.566;27.820;2023-05-28T09:44:29;13.73;;;6.85;;
9904;SDS011;4991;43.566;27.820;2023-05-28T09:46:56;8.35;;;6.18;;
9904;SDS011;4991;43.566;27.820;2023-05-28T09:49:21;8.63;;;5.72;;
9904;SDS011;4991;43.566;27.820;2023-05-28T09:51:47;7.03;;;5.47;;
9904;SDS011;4991;43.566;27.820;2023-05-28T09:54:17;10.02;;;5.45;;
9904;SDS011;4991;43.566;27.820;2023-05-28T09:56:44;10.93;;;6.65;;
9904;SDS011;4991;43.566;27.820;2023-05-28T09:59:12;9.93;;;5.85;;
9904;SDS011;4991;43.566;27.820;2023-05-28T10:04:39;14.82;;;7.35;;
9904;SDS011;4991;43.566;27.820;2023-05-28T10:07:06;10.18;;;6.95;;
9904;SDS011;4991;43.566;27.820;2023-05-28T10:09:36;11.27;;;7.50;;
9904;SDS011;4991;43.566;27.820;2023-05-28T10:12:05;13.75;;;7.93;;
9904;SDS011;4991;43.566;27.820;2023-05-28T10:14:36;10.35;;;6.68;;
9904;SDS011;4991;43.566;27.820;2023-05-28T10:17:03;18.20;;;7.45;;
9904;SDS011;4991;43.566;27.820;2023-05-28T10:19:28;9.52;;;6.43;;
9904;SDS011;4991;43.566;27.820;2023-05-28T10:21:55;19.80;;;8.25;;
9904;SDS011;4991;43.566;27.820;2023-05-28T10:24:21;17.02;;;7.03;;
9904;SDS011;4991;43.566;27.820;2023-05-28T10:26:47;11.55;;;6.70;;
9904;SDS011;4991;43.566;27.820;2023-05-28T10:29:13;14.57;;;10.30;;
9904;SDS011;4991;43.566;27.820;2023-05-28T10:31:38;9.10;;;6.32;;
9904;SDS011;4991;43.566;27.820;2023-05-28T10:34:14;16.05;;;6.80;;
9904;SDS011;4991;43.566;27.820;2023-05-28T10:36:49;11.57;;;6.60;;
9904;SDS011;4991;43.566;27.820;2023-05-28T10:39:16;11.88;;;7.03;;
9904;SDS011;4991;43.566;27.820;2023-05-28T10:41:41;9.32;;;6.10;;
9904;SDS011;4991;43.566;27.820;2023-05-28T10:44:07;10.35;;;6.80;;
9904;SDS011;4991;43.566;27.820;2023-05-28T10:46:39;13.52;;;6.35;;
9904;SDS011;4991;43.566;27.820;2023-05-28T10:49:05;11.88;;;7.43;;
9904;SDS011;4991;43.566;27.820;2023-05-28T10:57:09;10.50;;;7.00;;
9904;SDS011;4991;43.566;27.820;2023-05-28T10:59:42;16.20;;;8.48;;
9904;SDS011;4991;43.566;27.820;2023-05-28T11:02:25;13.52;;;6.13;;
9904;SDS011;4991;43.566;27.820;2023-05-28T11:04:56;11.35;;;5.60;;
9904;SDS011;4991;43.566;27.820;2023-05-28T11:07:35;12.18;;;6.85;;
9904;SDS011;4991;43.566;27.820;2023-05-28T11:10:03;16.38;;;6.65;;
9904;SDS011;4991;43.566;27.820;2023-05-28T11:12:31;14.43;;;6.05;;
9904;SDS011;4991;43.566;27.820;2023-05-28T11:15:02;6.13;;;5.32;;
9904;SDS011;4991;43.566;27.820;2023-05-28T11:17:28;9.00;;;4.93;;
9904;SDS011;4991;43.566;27.820;2023-05-28T11:19:54;10.00;;;5.40;;
9904;SDS011;4991;43.566;27.820;2023-05-28T11:22:20;6.32;;;5.22;;
9904;SDS011;4991;43.566;27.820;2023-05-28T11:24:56;9.35;;;6.60;;
9904;SDS011;4991;43.566;27.820;2023-05-28T11:27:29;6.80;;;5.72;;
9904;SDS011;4991;43.566;27.820;2023-05-28T11:29:56;11.25;;;6.28;;
9904;SDS011;4991;43.566;27.820;2023-05-28T11:32:23;11.50;;;5.78;;
9904;SDS011;4991;43.566;27.820;2023-05-28T11:34:50;11.85;;;6.05;;
9904;SDS011;4991;43.566;27.820;2023-05-28T11:37:22;7.93;;;5.40;;
9904;SDS011;4991;43.566;27.820;2023-05-28T11:39:50;9.45;;;5.07;;
9904;SDS011;4991;43.566;27.820;2023-05-28T11:42:28;5.72;;;4.80;;
9904;SDS011;4991;43.566;27.820;2023-05-28T11:45:02;7.80;;;4.90;;
9904;SDS011;4991;43.566;27.820;2023-05-28T11:47:31;7.18;;;5.32;;
9904;SDS011;4991;43.566;27.820;2023-05-28T11:49:59;12.07;;;4.95;;
9904;SDS011;4991;43.566;27.820;2023-05-28T11:52:31;9.60;;;5.63;;
9904;SDS011;4991;43.566;27.820;2023-05-28T11:54:57;10.90;;;5.63;;
9904;SDS011;4991;43.566;27.820;2023-05-28T11:57:26;9.32;;;5.45;;
9904;SDS011;4991;43.566;27.820;2023-05-28T12:00:02;11.20;;;5.72;;
9904;SDS011;4991;43.566;27.820;2023-05-28T12:02:46;11.10;;;5.35;;
9904;SDS011;4991;43.566;27.820;2023-05-28T12:05:16;9.32;;;5.47;;
9904;SDS011;4991;43.566;27.820;2023-05-28T12:07:49;9.98;;;5.60;;
9904;SDS011;4991;43.566;27.820;2023-05-28T12:10:17;6.78;;;5.00;;
9904;SDS011;4991;43.566;27.820;2023-05-28T12:12:46;10.50;;;6.70;;
9904;SDS011;4991;43.566;27.820;2023-05-28T12:15:13;13.60;;;5.80;;
9904;SDS011;4991;43.566;27.820;2023-05-28T12:17:41;7.00;;;5.30;;
9904;SDS011;4991;43.566;27.820;2023-05-28T12:22:43;8.13;;;5.43;;
9904;SDS011;4991;43.566;27.820;2023-05-28T12:25:08;8.30;;;5.55;;
9904;SDS011;4991;43.566;27.820;2023-05-28T12:27:35;6.43;;;4.15;;
9904;SDS011;4991;43.566;27.820;2023-05-28T12:30:02;5.55;;;4.75;;
9904;SDS011;4991;43.566;27.820;2023-05-28T12:32:28;5.28;;;4.22;;
9904;SDS011;4991;43.566;27.820;2023-05-28T12:34:54;7.30;;;4.50;;
9904;SDS011;4991;43.566;27.820;2023-05-28T12:37:22;6.80;;;5.25;;
9904;SDS011;4991;43.566;27.820;2023-05-28T12:39:48;8.43;;;4.70;;
9904;SDS011;4991;43.566;27.820;2023-05-28T12:42:14;6.68;;;4.45;;
9904;SDS011;4991;43.566;27.820;2023-05-28T12:44:40;13.43;;;4.88;;
9904;SDS011;4991;43.566;27.820;2023-05-28T12:47:06;5.38;;;3.55;;
9904;SDS011;4991;43.566;27.820;2023-05-28T12:49:31;6.18;;;4.50;;
9904;SDS011;4991;43.566;27.820;2023-05-28T12:51:58;6.63;;;3.80;;
9904;SDS011;4991;43.566;27.820;2023-05-28T12:54:23;9.95;;;4.32;;
9904;SDS011;4991;43.566;27.820;2023-05-28T12:56:49;8.77;;;4.97;;
9904;SDS011;4991;43.566;27.820;2023-05-28T12:59:24;12.57;;;4.82;;
9904;SDS011;4991;43.566;27.820;2023-05-28T13:01:52;9.20;;;4.97;;
9904;SDS011;4991;43.566;27.820;2023-05-28T13:04:20;7.93;;;5.00;;
9904;SDS011;4991;43.566;27.820;2023-05-28T13:06:47;7.00;;;4.65;;
9904;SDS011;4991;43.566;27.820;2023-05-28T13:09:13;9.20;;;4.78;;
9904;SDS011;4991;43.566;27.820;2023-05-28T13:11:41;8.00;;;5.80;;
9904;SDS011;4991;43.566;27.820;2023-05-28T13:14:07;7.47;;;5.32;;
9904;SDS011;4991;43.566;27.820;2023-05-28T13:16:35;7.88;;;4.78;;
9904;SDS011;4991;43.566;27.820;2023-05-28T13:19:01;6.03;;;5.43;;
9904;SDS011;4991;43.566;27.820;2023-05-28T13:21:27;6.95;;;5.20;;
9904;SDS011;4991;43.566;27.820;2023-05-28T13:23:54;7.95;;;5.80;;
9904;SDS011;4991;43.566;27.820;2023-05-28T13:26:19;6.55;;;4.93;;
9904;SDS011;4991;43.566;27.820;2023-05-28T13:28:47;8.90;;;5.57;;
9904;SDS011;4991;43.566;27.820;2023-05-28T13:31:13;13.15;;;6.93;;
9904;SDS011;4991;43.566;27.820;2023-05-28T13:33:38;9.85;;;5.85;;
9904;SDS011;4991;43.566;27.820;2023-05-28T13:36:04;14.52;;;7.07;;
9904;SDS011;4991;43.566;27.820;2023-05-28T13:38:31;9.68;;;6.57;;
9904;SDS011;4991;43.566;27.820;2023-05-28T13:40:58;8.35;;;5.85;;
9904;SDS011;4991;43.566;27.820;2023-05-28T13:43:25;9.68;;;6.13;;
9904;SDS011;4991;43.566;27.820;2023-05-28T13:45:54;10.55;;;5.72;;
9904;SDS011;4991;43.566;27.820;2023-05-28T13:48:20;10.88;;;6.13;;
9904;SDS011;4991;43.566;27.820;2023-05-28T13:50:45;6.95;;;5.50;;
9904;SDS011;4991;43.566;27.820;2023-05-28T13:53:11;10.65;;;5.55;;
9904;SDS011;4991;43.566;27.820;2023-05-28T13:55:37;7.93;;;5.72;;
9904;SDS011;4991;43.566;27.820;2023-05-28T13:58:02;13.82;;;6.85;;
9904;SDS011;4991;43.566;27.820;2023-05-28T14:00:28;12.35;;;6.45;;
9904;SDS011;4991;43.566;27.820;2023-05-28T14:02:54;10.00;;;6.25;;
9904;SDS011;4991;43.566;27.820;2023-05-28T14:05:19;9.65;;;5.88;;
9904;SDS011;4991;43.566;27.820;2023-05-28T14:07:47;7.65;;;5.95;;
9904;SDS011;4991;43.566;27.820;2023-05-28T14:10:13;7.07;;;4.78;;
9904;SDS011;4991;43.566;27.820;2023-05-28T14:12:38;6.90;;;4.80;;
9904;SDS011;4991;43.566;27.820;2023-05-28T14:15:04;14.32;;;6.30;;
9904;SDS011;4991;43.566;27.820;2023-05-28T14:17:31;7.90;;;5.38;;
9904;SDS011;4991;43.566;27.820;2023-05-28T14:19:56;8.90;;;6.25;;
9904;SDS011;4991;43.566;27.820;2023-05-28T14:22:22;11.27;;;7.28;;
9904;SDS011;4991;43.566;27.820;2023-05-28T14:24:47;8.32;;;6.15;;
9904;SDS011;4991;43.566;27.820;2023-05-28T14:27:13;10.02;;;5.95;;
9904;SDS011;4991;43.566;27.820;2023-05-28T14:29:39;13.82;;;5.63;;
9904;SDS011;4991;43.566;27.820;2023-05-28T14:32:05;16.20;;;6.80;;
9904;SDS011;4991;43.566;27.820;2023-05-28T14:34:30;7.65;;;5.25;;
9904;SDS011;4991;43.566;27.820;2023-05-28T14:36:56;9.60;;;5.43;;
9904;SDS011;4991;43.566;27.820;2023-05-28T14:39:23;11.55;;;5.78;;
9904;SDS011;4991;43.566;27.820;2023-05-28T14:41:50;8.15;;;5.50;;
9904;SDS011;4991;43.566;27.820;2023-05-28T14:44:15;18.23;;;5.97;;
9904;SDS011;4991;43.566;27.820;2023-05-28T14:46:41;13.07;;;5.68;;
9904;SDS011;4991;43.566;27.820;2023-05-28T14:49:07;11.52;;;6.20;;
9904;SDS011;4991;43.566;27.820;2023-05-28T14:51:32;7.70;;;5.60;;
9904;SDS011;4991;43.566;27.820;2023-05-28T14:53:58;11.18;;;6.32;;
9904;SDS011;4991;43.566;27.820;2023-05-28T14:56:24;12.32;;;5.15;;
9904;SDS011;4991;43.566;27.820;2023-05-28T14:58:51;15.20;;;5.60;;
9904;SDS011;4991;43.566;27.820;2023-05-28T15:01:16;9.35;;;5.50;;